createdAt,value
2023-04-16T00:02:34.099Z,5.50
2023-04-16T00:07:41.717Z,5.30
2023-04-16T00:12:48.457Z,5.20
2023-04-16T00:17:55.124Z,5.00
2023-04-16T00:23:02.529Z,5.20
2023-04-16T00:28:11.018Z,4.70
2023-04-16T00:33:17.136Z,4.90
2023-04-16T00:38:23.486Z,4.80
2023-04-16T00:43:31.601Z,4.60
2023-04-16T00:48:38.845Z,4.70
2023-04-16T00:53:44.760Z,4.50
2023-04-16T00:58:50.628Z,4.60
2023-04-16T01:03:56.927Z,4.60
2023-04-16T01:09:02.919Z,4.10
2023-04-16T01:14:08.885Z,4.20
2023-04-16T01:19:15.694Z,4.10
2023-04-16T01:24:21.571Z,4.00
2023-04-16T01:29:28.493Z,4.00
2023-04-16T01:34:34.298Z,4.30
2023-04-16T01:39:40.158Z,3.80
2023-04-16T01:44:48.501Z,3.50
2023-04-16T01:49:54.243Z,3.50
2023-04-16T01:55:00.185Z,3.60
2023-04-16T02:00:06.305Z,3.50
2023-04-16T02:05:12.622Z,3.30
2023-04-16T02:10:18.464Z,3.30
2023-04-16T02:15:26.610Z,3.20
2023-04-16T02:20:32.416Z,3.40
2023-04-16T02:25:42.568Z,3.20
2023-04-16T02:30:48.374Z,3.20
2023-04-16T02:35:54.192Z,3.40
2023-04-16T02:41:01.142Z,3.40
2023-04-16T02:46:06.922Z,3.50
2023-04-16T02:51:12.680Z,3.10
2023-04-16T02:56:18.638Z,3.20
2023-04-16T03:01:25.262Z,3.00
2023-04-16T03:06:31.638Z,3.30
2023-04-16T03:11:38.644Z,3.40
2023-04-16T03:16:44.332Z,3.10
2023-04-16T03:21:50.561Z,2.80
2023-04-16T03:26:59.267Z,2.70
2023-04-16T03:32:06.529Z,2.60
2023-04-16T03:37:13.144Z,2.80
2023-04-16T03:42:18.905Z,3.00
2023-04-16T03:47:25.327Z,2.90
2023-04-16T03:52:31.620Z,2.80
2023-04-16T03:57:38.095Z,2.60
2023-04-16T04:02:44.147Z,2.90
2023-04-16T04:07:50.452Z,3.00
2023-04-16T04:12:57.374Z,2.90
2023-04-16T04:18:03.854Z,2.50
2023-04-16T04:23:09.806Z,2.60
2023-04-16T04:28:15.944Z,2.80
2023-04-16T04:33:21.610Z,2.90
2023-04-16T04:38:30.229Z,2.60
2023-04-16T04:43:36.356Z,2.80
2023-04-16T04:48:41.969Z,2.80
2023-04-16T04:53:47.982Z,2.70
2023-04-16T04:58:53.769Z,3.00
2023-04-16T05:04:00.753Z,2.60
2023-04-16T05:09:06.764Z,2.20
2023-04-16T05:14:12.869Z,2.30
2023-04-16T05:19:18.651Z,2.70
2023-04-16T05:24:24.299Z,2.80
2023-04-16T05:29:30.415Z,2.80
2023-04-16T05:34:36.098Z,3.00
2023-04-16T05:39:42.036Z,3.60
2023-04-16T05:44:48.253Z,3.90
2023-04-16T05:49:54.222Z,4.60
2023-04-16T05:55:01.971Z,5.10
2023-04-16T06:00:08.709Z,5.70
2023-04-16T06:05:14.531Z,5.90
2023-04-16T06:10:20.527Z,5.80
2023-04-16T06:15:27.782Z,6.10
2023-04-16T06:20:34.226Z,7.00
2023-04-16T06:25:42.762Z,7.60
2023-04-16T06:30:48.929Z,8.00
2023-04-16T06:35:55.592Z,8.40
2023-04-16T06:41:01.380Z,8.20
2023-04-16T06:46:07.258Z,8.70
2023-04-16T06:51:13.408Z,9.10
2023-04-16T06:56:19.537Z,9.30
2023-04-16T07:01:25.690Z,9.20
2023-04-16T07:06:36.193Z,9.30
2023-04-16T07:11:42.667Z,9.90
2023-04-16T07:16:48.664Z,10.10
2023-04-16T07:21:54.567Z,10.50
2023-04-16T07:27:00.748Z,10.80
2023-04-16T07:32:06.475Z,11.30
2023-04-16T07:37:12.196Z,11.60
2023-04-16T07:42:19.148Z,12.00
2023-04-16T07:47:27.202Z,12.20
2023-04-16T07:52:33.689Z,11.70
2023-04-16T07:57:40.069Z,11.50
2023-04-16T08:02:47.125Z,11.90
2023-04-16T08:07:53.257Z,11.80
2023-04-16T08:13:01.372Z,12.60
2023-04-16T08:18:08.623Z,12.70
2023-04-16T08:23:16.154Z,11.80
2023-04-16T08:28:21.798Z,11.80
2023-04-16T08:33:27.676Z,11.90
2023-04-16T08:38:33.333Z,12.20
2023-04-16T08:43:40.249Z,11.90
2023-04-16T08:48:47.406Z,12.00
2023-04-16T08:53:58.829Z,11.90
2023-04-16T08:59:08.646Z,12.00
2023-04-16T09:04:16.536Z,12.10
2023-04-16T09:09:22.862Z,12.60
2023-04-16T09:14:28.629Z,13.20
2023-04-16T09:19:35.258Z,13.70
2023-04-16T09:24:42.094Z,13.30
2023-04-16T09:29:48.423Z,13.70
2023-04-16T09:34:59.077Z,14.40
2023-04-16T09:40:06.673Z,14.10
2023-04-16T09:45:13.648Z,14.70
2023-04-16T09:50:21.416Z,15.00
2023-04-16T09:55:29.384Z,14.90
2023-04-16T10:00:35.149Z,14.50
2023-04-16T10:05:43.185Z,15.00
2023-04-16T10:10:49.573Z,15.80
2023-04-16T10:15:59.070Z,15.50
2023-04-16T10:21:04.941Z,15.10
2023-04-16T10:26:10.930Z,14.80
2023-04-16T10:31:17.064Z,15.00
2023-04-16T10:36:26.769Z,15.20
2023-04-16T10:41:34.127Z,14.90
2023-04-16T10:46:45.069Z,15.80
2023-04-16T10:51:56.225Z,15.50
2023-04-16T10:57:13.951Z,15.60
2023-04-16T11:02:20.488Z,15.90
2023-04-16T11:07:35.126Z,15.50
2023-04-16T11:12:44.729Z,15.20
2023-04-16T11:17:52.076Z,16.20
2023-04-16T11:23:00.209Z,15.50
2023-04-16T11:28:06.353Z,15.60
2023-04-16T11:33:13.750Z,14.30
2023-04-16T11:38:20.159Z,13.90
2023-04-16T11:43:25.622Z,13.40
2023-04-16T11:48:53.089Z,13.20
2023-04-16T11:53:59.170Z,13.00
2023-04-16T11:59:15.652Z,13.00
2023-04-16T12:04:25.288Z,13.70
2023-04-16T12:09:31.602Z,14.00
2023-04-16T12:14:38.018Z,13.90
2023-04-16T12:19:52.009Z,13.90
2023-04-16T12:25:05.280Z,14.00
2023-04-16T12:30:11.832Z,14.40
2023-04-16T12:35:32.571Z,13.30
2023-04-16T12:40:38.771Z,12.60
2023-04-16T12:45:44.810Z,12.10
2023-04-16T12:50:51.098Z,11.90
2023-04-16T12:55:57.511Z,11.70
2023-04-16T13:01:03.496Z,11.50
2023-04-16T13:06:09.715Z,11.50
2023-04-16T13:11:16.106Z,11.30
2023-04-16T13:16:23.450Z,10.90
2023-04-16T13:21:29.779Z,11.00
2023-04-16T13:26:37.025Z,10.70
2023-04-16T13:31:43.512Z,10.40
2023-04-16T13:36:49.586Z,10.40
2023-04-16T13:41:55.580Z,10.50
2023-04-16T13:47:01.578Z,10.50
2023-04-16T13:52:07.734Z,10.80
2023-04-16T13:57:14.204Z,10.60
2023-04-16T14:02:21.337Z,10.60
2023-04-16T14:07:28.173Z,10.90
2023-04-16T14:12:34.634Z,10.40
2023-04-16T14:17:41.161Z,10.30
2023-04-16T14:22:47.348Z,10.30
2023-04-16T14:27:53.578Z,10.20
2023-04-16T14:32:59.782Z,10.10
2023-04-16T14:38:05.576Z,9.70
2023-04-16T14:43:11.965Z,9.30
2023-04-16T14:48:18.153Z,9.20
2023-04-16T14:53:25.514Z,9.20
2023-04-16T14:58:31.575Z,9.00
2023-04-16T15:03:37.947Z,9.00
2023-04-16T15:08:43.899Z,9.00
2023-04-16T15:13:50.058Z,9.00
2023-04-16T15:18:56.325Z,9.10
2023-04-16T15:24:03.071Z,9.00
2023-04-16T15:29:10.192Z,8.90
2023-04-16T15:34:16.161Z,8.90
2023-04-16T15:39:22.385Z,9.00
2023-04-16T15:44:28.867Z,8.90
2023-04-16T15:49:34.388Z,9.00
2023-04-16T15:54:42.040Z,8.90
2023-04-16T15:59:59.538Z,8.90
2023-04-16T16:04:55.382Z,8.90
2023-04-16T16:10:02.411Z,9.00
2023-04-16T16:15:09.240Z,8.90
2023-04-16T16:20:16.612Z,9.00
2023-04-16T16:25:22.423Z,9.30
2023-04-16T16:30:28.665Z,9.40
2023-04-16T16:35:35.034Z,9.40
2023-04-16T16:40:40.848Z,9.30
2023-04-16T16:45:47.900Z,9.40
2023-04-16T16:50:54.331Z,9.30
2023-04-16T16:56:00.248Z,9.20
2023-04-16T17:01:06.090Z,9.00
2023-04-16T17:06:12.634Z,8.90
2023-04-16T17:11:18.652Z,8.90
2023-04-16T17:16:24.535Z,9.00
2023-04-16T17:21:32.907Z,8.90
2023-04-16T17:26:40.199Z,9.00
2023-04-16T17:31:47.156Z,9.00
2023-04-16T17:36:53.075Z,9.20
2023-04-16T17:42:01.640Z,9.10
2023-04-16T17:47:08.909Z,9.00
2023-04-16T17:52:17.134Z,8.60
2023-04-16T17:57:24.353Z,8.80
2023-04-16T18:02:30.673Z,8.60
2023-04-16T18:07:37.650Z,8.50
2023-04-16T18:12:43.558Z,8.60
2023-04-16T18:17:50.192Z,8.80
2023-04-16T18:23:00.617Z,8.90
2023-04-16T18:28:07.128Z,8.80
2023-04-16T18:33:38.403Z,8.60
2023-04-16T18:38:22.105Z,8.50
2023-04-16T18:43:28.654Z,8.20
2023-04-16T18:48:34.864Z,8.20
2023-04-16T18:53:42.570Z,8.30
2023-04-16T18:58:49.550Z,8.60
2023-04-16T19:03:56.741Z,8.20
2023-04-16T19:09:03.015Z,8.20
2023-04-16T19:14:09.700Z,7.90
2023-04-16T19:19:19.311Z,7.70
2023-04-16T19:24:25.871Z,7.80
2023-04-16T19:29:37.282Z,7.80
2023-04-16T19:34:44.040Z,7.90
2023-04-16T19:39:51.771Z,7.60
2023-04-16T19:44:59.822Z,7.50
2023-04-16T19:50:05.932Z,7.30
2023-04-16T19:55:13.459Z,7.30
2023-04-16T20:00:21.040Z,7.20
2023-04-16T20:05:27.596Z,7.30
2023-04-16T20:10:33.687Z,7.20
2023-04-16T20:15:41.160Z,7.30
2023-04-16T20:20:47.336Z,7.30
2023-04-16T20:25:53.418Z,7.20
2023-04-16T20:31:00.652Z,7.40
2023-04-16T20:36:07.729Z,7.00
2023-04-16T20:41:15.970Z,6.70
2023-04-16T20:46:24.694Z,6.80
2023-04-16T20:51:31.591Z,6.80
2023-04-16T20:56:39.661Z,6.70
2023-04-16T21:01:45.692Z,6.40
2023-04-16T21:06:53.140Z,6.20
2023-04-16T21:11:59.040Z,6.20
2023-04-16T21:17:05.004Z,6.20
2023-04-16T21:22:11.884Z,6.40
2023-04-16T21:27:18.212Z,6.10
2023-04-16T21:32:24.495Z,6.10
2023-04-16T21:37:30.238Z,6.10
2023-04-16T21:42:40.618Z,6.30
2023-04-16T21:47:46.502Z,5.70
2023-04-16T21:52:54.898Z,5.70
2023-04-16T21:58:00.812Z,6.00
2023-04-16T22:03:09.290Z,6.10
2023-04-16T22:08:24.080Z,6.00
2023-04-16T22:13:27.530Z,6.00
2023-04-16T22:18:33.827Z,5.80
2023-04-16T22:23:40.638Z,5.60
2023-04-16T22:28:46.678Z,5.20
2023-04-16T22:33:52.858Z,5.40
2023-04-16T22:38:58.915Z,5.30
2023-04-16T22:44:05.035Z,5.20
2023-04-16T22:49:12.791Z,5.20
2023-04-16T22:54:18.450Z,5.20
2023-04-16T22:59:24.844Z,5.10
2023-04-16T23:04:30.589Z,4.80
2023-04-16T23:09:38.446Z,4.60
2023-04-16T23:14:46.099Z,4.80
2023-04-16T23:19:51.938Z,4.90
2023-04-16T23:24:57.745Z,4.40
2023-04-16T23:30:03.843Z,4.30
2023-04-16T23:35:10.615Z,4.60
2023-04-16T23:40:18.326Z,4.20
2023-04-16T23:45:24.256Z,4.50
2023-04-16T23:50:30.680Z,4.00
2023-04-16T23:55:37.576Z,3.50
